Time;durP1;ratioP1;P1;durP2;ratioP2;P2;SDS_P1;SDS_P2;PMS_P1;PMS_P2;Temp;Humidity;BMP_temperature;BMP_pressure;BME280_temperature;BME280_humidity;BME280_pressure;Samples;Min_cycle;Max_cycle;Signal;HPM_P1;HPM_P2
2022/05/01 00:01:02;;;;;;;4.03;3.73;;;;;;;11.00;77.54;99351.25;5115166;27;42333;-80
2022/05/01 00:03:34;;;;;;;3.53;3.23;;;;;;;10.83;77.36;99334.59;5115678;27;41008;-82
2022/05/01 00:06:04;;;;;;;4.57;4.00;;;;;;;10.80;77.33;99333.81;5131969;27;42887;-83
2022/05/01 00:08:33;;;;;;;4.60;4.10;;;;;;;10.81;77.48;99342.63;5132591;27;42982;-79
2022/05/01 00:11:01;;;;;;;3.90;3.50;;;;;;;10.84;77.42;99347.75;5114543;27;40082;-82
2022/05/01 00:13:30;;;;;;;4.37;3.97;;;;;;;10.85;77.41;99352.13;5132733;27;40634;-82
2022/05/01 00:15:58;;;;;;;4.27;3.57;;;;;;;10.47;77.62;99287.16;5133651;27;43494;-81
2022/05/01 00:18:26;;;;;;;4.53;4.00;;;;;;;10.82;77.51;99339.03;5132264;27;40996;-81
2022/05/01 00:20:53;;;;;;;3.93;3.63;;;;;;;10.80;77.30;99330.31;5115109;27;38989;-81
2022/05/01 00:23:21;;;;;;;3.87;3.37;;;;;;;10.87;77.26;99339.66;5132358;27;41803;-82
2022/05/01 00:25:49;;;;;;;3.83;3.33;;;;;;;10.94;76.95;99348.94;5114601;27;42140;-83
2022/05/01 00:28:17;;;;;;;4.20;3.80;;;;;;;10.80;76.97;99325.00;5132299;27;40990;-82
2022/05/01 00:30:46;;;;;;;4.83;4.30;;;;;;;10.84;76.93;99328.34;5115192;27;38965;-79
2022/05/01 00:38:44;;;;;;;3.47;3.17;;;;;;;10.95;76.69;99332.09;5130307;27;42960;-80
2022/05/01 00:41:12;;;;;;;4.17;3.83;;;;;;;10.87;76.56;99315.78;5117912;27;38964;-79
2022/05/01 00:44:11;;;;;;;3.87;3.50;;;;;;;11.00;76.77;99326.56;5115643;27;41808;-82
2022/05/01 00:46:41;;;;;;;3.80;3.40;;;;;;;10.97;76.68;99326.72;5058592;28;42964;-82
2022/05/01 00:49:12;;;;;;;4.90;3.77;;;;;;;10.94;76.74;99321.59;5117355;27;20220;-82
2022/05/01 00:51:42;;;;;;;5.40;4.33;;;;;;;10.85;76.77;99312.38;5114263;27;41165;-82
2022/05/01 00:54:10;;;;;;;4.03;3.63;;;;;;;10.93;76.42;99327.84;5114849;27;40776;-80
2022/05/01 00:56:41;;;;;;;4.33;3.93;;;;;;;10.91;76.66;99333.22;5131987;27;42961;-80
2022/05/01 00:59:11;;;;;;;4.20;3.87;;;;;;;10.88;76.61;99333.38;5113947;27;41332;-80
2022/05/01 01:01:43;;;;;;;5.30;4.73;;;;;;;10.37;76.54;99263.00;5130902;27;40014;-81
2022/05/01 01:04:11;;;;;;;5.67;5.00;;;;;;;10.85;76.83;99338.88;5114690;27;40812;-83
2022/05/01 01:06:39;;;;;;;5.13;4.20;;;;;;;10.46;76.63;99274.88;5131617;27;43220;-79
2022/05/01 01:09:08;;;;;;;5.80;4.90;;;;;;;10.80;76.89;99330.31;5131508;27;42313;-82
2022/05/01 01:11:36;;;;;;;5.50;4.90;;;;;;;10.80;76.85;99331.16;5131616;27;38781;-79
2022/05/01 01:14:05;;;;;;;5.60;4.70;;;;;;;10.78;76.72;99332.19;5114403;27;40578;-79
2022/05/01 01:16:34;;;;;;;5.83;5.23;;;;;;;10.73;76.94;99328.97;5114602;27;43162;-80
2022/05/01 01:19:04;;;;;;;6.43;5.83;;;;;;;10.57;76.99;99307.75;5114303;27;41103;-79
2022/05/01 01:21:33;;;;;;;5.40;4.83;;;;;;;10.68;76.75;99328.34;5130644;27;40017;-81
2022/05/01 01:24:03;;;;;;;5.93;4.87;;;;;;;10.66;76.92;99330.22;5131604;27;41408;-82
2022/05/01 01:26:31;;;;;;;9.17;7.60;;;;;;;10.63;76.92;99333.88;5131775;27;42867;-78
2022/05/01 01:29:00;;;;;;;6.33;5.73;;;;;;;10.61;77.03;99334.94;5113745;27;40872;-81
2022/05/01 01:31:42;;;;;;;7.80;7.00;;;;;;;10.62;76.85;99336.66;5130912;27;38827;-81
2022/05/01 01:34:14;;;;;;;11.40;8.67;;;;;;;10.33;77.51;99287.91;5131544;27;40932;-81
2022/05/01 01:36:46;;;;;;;8.97;7.57;;;;;;;10.66;77.39;99338.16;5114289;27;44441;-84
2022/05/01 01:39:18;;;;;;;7.13;6.17;;;;;;;10.69;77.77;99343.31;5130891;27;42394;-83
2022/05/01 01:41:49;;;;;;;8.47;7.23;;;;;;;10.72;77.55;99337.84;5114381;27;41232;-81
2022/05/01 01:44:18;;;;;;;8.70;7.47;;;;;;;10.46;78.35;99288.09;5113413;27;40876;-83
2022/05/01 01:46:46;;;;;;;8.93;7.40;;;;;;;10.73;78.02;99339.56;5113794;27;41665;-83
2022/05/01 01:49:13;;;;;;;9.37;7.87;;;;;;;10.75;78.41;99337.69;5130611;27;41571;-78
2022/05/01 01:51:41;;;;;;;9.77;7.23;;;;;;;10.77;78.21;99336.63;5130698;27;40104;-84
2022/05/01 01:54:10;;;;;;;9.13;7.13;;;;;;;10.78;77.92;99332.19;5113572;27;42147;-81
2022/05/01 01:56:38;;;;;;;7.47;6.33;;;;;;;10.77;78.29;99335.78;5113427;27;41478;-82
2022/05/01 01:59:05;;;;;;;8.27;7.40;;;;;;;10.74;78.05;99339.47;5113284;27;41417;-82
2022/05/01 02:01:33;;;;;;;6.60;5.97;;;;;;;10.72;77.88;99337.84;5113625;27;39132;-81
2022/05/01 02:04:01;;;;;;;8.33;6.30;;;;;;;10.56;78.11;99315.78;5130789;27;42740;-83
2022/05/01 02:06:28;;;;;;;7.93;7.13;;;;;;;10.68;78.06;99336.28;5130844;27;42582;-82
2022/05/01 02:08:58;;;;;;;7.53;6.17;;;;;;;10.66;78.14;99327.56;5113172;27;41160;-78
2022/05/01 02:11:27;;;;;;;6.37;5.67;;;;;;;10.66;78.09;99332.88;5113210;27;40291;-82
2022/05/01 02:13:54;;;;;;;8.80;6.60;;;;;;;10.63;78.34;99322.47;5132036;27;42778;-84
2022/05/01 02:16:22;;;;;;;6.33;5.50;;;;;;;10.61;78.01;99324.34;5130788;27;41615;-81
2022/05/01 02:18:50;;;;;;;7.87;6.30;;;;;;;10.64;77.90;99318.84;5113289;27;42753;-81
2022/05/01 02:21:35;;;;;;;7.47;6.60;;;;;;;10.59;78.16;99315.63;5113190;27;38979;-78
2022/05/01 02:24:06;;;;;;;6.93;5.83;;;;;;;10.63;77.98;99317.16;5107531;28;41187;-82
2022/05/01 02:26:36;;;;;;;8.90;7.40;;;;;;;10.63;77.91;99322.47;5123992;27;43146;-81
2022/05/01 02:29:09;;;;;;;7.90;6.60;;;;;;;10.62;78.10;99320.75;5112582;27;42418;-82
2022/05/01 02:31:39;;;;;;;8.20;7.40;;;;;;;10.65;78.05;99326.72;5113408;27;40084;-80
2022/05/01 02:34:07;;;;;;;7.80;6.47;;;;;;;10.62;77.75;99323.41;5133494;27;42999;-79
2022/05/01 02:36:35;;;;;;;7.13;6.13;;;;;;;10.69;78.33;99327.41;5134364;27;43493;-82
2022/05/01 02:39:04;;;;;;;8.27;7.43;;;;;;;10.70;77.92;99337.06;5116168;27;41428;-80
2022/05/01 02:41:32;;;;;;;9.53;6.53;;;;;;;10.67;78.06;99324.84;5116662;27;40234;-82
2022/05/01 02:44:01;;;;;;;8.43;7.33;;;;;;;10.74;78.08;99335.97;5133634;27;41654;-79
2022/05/01 02:46:28;;;;;;;7.63;6.67;;;;;;;10.74;78.12;99323.56;5133617;27;41942;-82
2022/05/01 02:48:56;;;;;;;6.50;5.70;;;;;;;10.76;78.40;99331.41;5133685;27;43955;-80
2022/05/01 02:51:24;;;;;;;9.70;7.83;;;;;;;10.71;78.53;99323.75;5133500;27;39147;-79
2022/05/01 02:53:51;;;;;;;9.23;6.40;;;;;;;10.72;78.50;99317.50;5133924;27;42042;-81
2022/05/01 02:56:19;;;;;;;7.47;6.47;;;;;;;10.73;78.54;99318.38;5116393;27;43127;-80
2022/05/01 02:58:46;;;;;;;7.83;6.60;;;;;;;10.74;78.31;99320.06;5116732;27;42363;-80
2022/05/01 03:01:16;;;;;;;6.43;5.73;;;;;;;10.60;78.23;99301.44;5133524;27;39831;-80
2022/05/01 03:03:44;;;;;;;5.90;5.33;;;;;;;10.48;78.09;99275.63;5116442;27;42675;-80
2022/05/01 03:06:11;;;;;;;7.27;5.23;;;;;;;10.72;77.82;99316.66;5134831;27;43582;-83
2022/05/01 03:08:39;;;;;;;7.33;5.90;;;;;;;10.69;78.03;99312.38;5133445;27;41266;-82
2022/05/01 03:11:07;;;;;;;6.33;5.10;;;;;;;10.57;77.79;99291.00;5116000;27;42197;-83
2022/05/01 03:13:34;;;;;;;5.93;5.10;;;;;;;10.64;77.58;99308.25;5134952;27;42753;-83
2022/05/01 03:16:02;;;;;;;5.00;4.50;;;;;;;10.61;77.76;99301.34;5116311;27;41757;-78
2022/05/01 03:24:00;;;;;;;7.27;5.57;;;;;;;10.40;77.65;99299.88;5130505;27;42588;-82
2022/05/01 03:26:28;;;;;;;7.63;5.70;;;;;;;10.36;77.99;99301.84;5115976;27;41681;-81
2022/05/01 03:28:56;;;;;;;7.03;5.67;;;;;;;10.33;77.91;99302.00;5115925;27;42450;-81
2022/05/01 03:31:27;;;;;;;6.63;5.93;;;;;;;10.24;77.96;99289.28;5133081;27;39088;-78
2022/05/01 03:33:56;;;;;;;6.80;5.40;;;;;;;10.22;77.85;99304.38;5133329;27;40655;-80
2022/05/01 03:36:26;;;;;;;7.90;6.43;;;;;;;10.15;78.25;99295.00;5134170;27;42666;-83
2022/05/01 03:38:53;;;;;;;6.27;5.67;;;;;;;10.03;78.02;99285.09;5116058;27;41242;-78
2022/05/01 03:41:21;;;;;;;6.10;5.50;;;;;;;9.98;77.89;99281.84;5136021;27;39846;-79
2022/05/01 03:43:49;;;;;;;5.27;4.53;;;;;;;10.07;77.86;99302.53;5116194;27;41967;-80
2022/05/01 03:46:17;;;;;;;5.83;5.23;;;;;;;10.04;77.88;99292.09;5132671;27;42563;-78
2022/05/01 03:48:46;;;;;;;6.07;5.27;;;;;;;10.12;78.08;99304.94;5133126;27;42578;-79
2022/05/01 03:51:15;;;;;;;5.73;4.93;;;;;;;10.15;77.81;99304.75;5132094;27;41372;-80
2022/05/01 03:53:44;;;;;;;5.63;5.07;;;;;;;10.19;77.79;99307.19;5133392;27;41984;-81
2022/05/01 03:56:11;;;;;;;6.47;5.47;;;;;;;10.13;77.85;99291.63;5132883;27;43835;-79
2022/05/01 03:58:39;;;;;;;7.23;5.47;;;;;;;10.12;77.74;99284.63;5132077;27;43202;-81
2022/05/01 04:01:07;;;;;;;6.50;5.70;;;;;;;10.24;77.71;99302.53;5133859;27;40036;-82
2022/05/01 04:03:34;;;;;;;6.77;5.23;;;;;;;10.34;77.66;99318.75;5114796;27;40926;-79
2022/05/01 04:06:02;;;;;;;6.23;5.13;;;;;;;10.04;77.35;99260.34;5132083;27;41713;-82
2022/05/01 04:08:31;;;;;;;5.57;4.90;;;;;;;10.42;77.62;99320.03;5133436;27;43286;-81
2022/05/01 04:11:00;;;;;;;6.00;5.37;;;;;;;10.43;77.43;99316.44;5115554;27;41058;-82
2022/05/01 04:13:28;;;;;;;6.17;5.33;;;;;;;10.48;77.17;99318.00;5115258;27;41724;-81
2022/05/01 04:15:55;;;;;;;7.50;6.27;;;;;;;10.37;77.17;99295.63;5132749;27;42092;-78
2022/05/01 04:18:23;;;;;;;8.10;6.17;;;;;;;10.50;77.36;99317.00;5133542;27;42221;-82
2022/05/01 04:20:52;;;;;;;6.53;4.67;;;;;;;10.13;77.46;99246.63;5115438;27;38687;-78
2022/05/01 04:23:21;;;;;;;5.30;4.53;;;;;;;10.54;77.15;99312.34;5115386;27;40527;-81
2022/05/01 04:25:50;;;;;;;5.97;5.17;;;;;;;10.55;77.95;99314.06;5114957;27;41819;-80
2022/05/01 04:28:18;;;;;;;8.20;6.17;;;;;;;10.56;77.64;99310.47;5114351;27;41453;-80
2022/05/01 04:30:46;;;;;;;6.03;5.37;;;;;;;10.59;77.47;99315.63;5132237;27;40118;-79
2022/05/01 04:33:16;;;;;;;6.97;6.17;;;;;;;10.49;77.54;99298.53;5132065;27;42209;-84
2022/05/01 04:35:45;;;;;;;6.57;5.87;;;;;;;10.62;77.32;99315.47;5131998;27;43829;-80
2022/05/01 04:38:15;;;;;;;6.43;5.50;;;;;;;10.33;77.55;99267.59;5114698;27;41593;-80
2022/05/01 04:40:45;;;;;;;7.20;5.37;;;;;;;10.64;77.81;99313.56;5132323;27;40206;-77
2022/05/01 04:43:17;;;;;;;8.03;6.47;;;;;;;10.67;77.65;99319.53;5131922;27;41077;-81
2022/05/01 04:45:47;;;;;;;7.90;6.40;;;;;;;10.68;77.85;99315.09;5130068;27;42601;-79
2022/05/01 04:48:17;;;;;;;7.57;6.20;;;;;;;10.69;77.90;99327.41;5131813;27;43521;-83
2022/05/01 04:50:46;;;;;;;8.03;6.93;;;;;;;10.67;77.98;99323.97;5132558;27;40311;-83
2022/05/01 04:53:14;;;;;;;7.50;6.13;;;;;;;10.66;77.54;99319.63;5114724;27;41612;-81
2022/05/01 04:55:46;;;;;;;8.23;6.93;;;;;;;10.67;77.71;99323.97;5129894;27;43415;-81
2022/05/01 04:58:16;;;;;;;10.50;7.50;;;;;;;10.60;78.34;99318.19;5114387;27;41338;-81
2022/05/01 05:00:44;;;;;;;7.80;6.43;;;;;;;10.68;78.01;99333.66;5131239;27;40212;-80
2022/05/01 05:03:12;;;;;;;6.83;6.13;;;;;;;10.67;78.17;99324.84;5132141;27;40886;-82
2022/05/01 05:05:40;;;;;;;6.17;5.57;;;;;;;10.69;78.08;99314.16;5112517;27;41679;-81
2022/05/01 05:10:53;;;;;;;6.13;5.53;;;;;;;10.95;78.00;99324.16;5114507;27;39349;-81
2022/05/01 05:13:26;;;;;;;6.77;5.53;;;;;;;11.04;77.94;99333.38;5131794;27;41760;-83
2022/05/01 05:15:58;;;;;;;7.67;6.53;;;;;;;11.11;77.73;99332.97;5130905;27;42773;-79
2022/05/01 05:18:25;;;;;;;6.80;6.10;;;;;;;11.05;77.52;99314.75;5097812;27;43939;-82
2022/05/01 05:20:53;;;;;;;6.37;5.70;;;;;;;11.25;77.23;99331.31;5114429;27;40316;-82
2022/05/01 05:23:21;;;;;;;7.13;6.43;;;;;;;11.29;77.16;99324.88;5131592;27;41617;-84
2022/05/01 05:25:48;;;;;;;7.83;6.00;;;;;;;11.36;77.18;99331.53;5131541;27;42032;-83
2022/05/01 05:28:18;;;;;;;7.70;6.27;;;;;;;11.35;77.40;99322.72;5127811;27;41448;-80
2022/05/01 05:30:48;;;;;;;6.77;5.67;;;;;;;11.54;77.32;99343.72;5113554;27;41158;-83
2022/05/01 05:33:17;;;;;;;7.13;6.43;;;;;;;11.62;77.50;99333.50;5129791;27;41446;-81
2022/05/01 05:35:45;;;;;;;8.97;6.60;;;;;;;11.74;77.23;99339.91;5129904;27;43649;-79
2022/05/01 05:38:12;;;;;;;6.47;5.77;;;;;;;11.74;77.18;99322.19;5129502;27;42340;-79
2022/05/01 05:40:40;;;;;;;8.53;7.10;;;;;;;11.93;76.90;99340.53;5130489;27;39034;-82
2022/05/01 05:43:08;;;;;;;7.50;6.80;;;;;;;11.99;76.14;99357.91;5111600;27;40531;-82
2022/05/01 05:45:35;;;;;;;6.00;5.40;;;;;;;12.06;75.92;99351.25;5132155;27;42842;-79
2022/05/01 05:48:05;;;;;;;7.80;6.33;;;;;;;12.09;75.95;99345.78;5130223;27;42210;-81
2022/05/01 05:50:33;;;;;;;8.10;6.20;;;;;;;12.13;75.78;99337.50;5126054;27;40520;-78
2022/05/01 05:53:01;;;;;;;8.57;6.40;;;;;;;12.28;75.75;99346.34;5131324;27;41934;-82
2022/05/01 05:55:33;;;;;;;7.63;6.33;;;;;;;12.34;75.50;99347.78;5130503;27;41994;-80
2022/05/01 05:58:01;;;;;;;6.07;5.47;;;;;;;12.41;75.61;99347.28;5124330;27;43290;-80
2022/05/01 06:00:28;;;;;;;6.70;6.00;;;;;;;12.45;75.10;99343.50;5131068;27;40020;-80
2022/05/01 06:02:56;;;;;;;6.00;5.40;;;;;;;12.50;74.88;99340.53;5112943;27;40175;-80
2022/05/01 06:05:25;;;;;;;8.13;5.83;;;;;;;12.57;74.70;99347.19;5111763;27;41984;-82
2022/05/01 06:07:53;;;;;;;7.67;5.77;;;;;;;12.64;74.91;99351.16;5114305;27;42397;-80
2022/05/01 06:10:21;;;;;;;6.30;5.50;;;;;;;12.70;74.31;99349.94;5116086;27;39975;-80
2022/05/01 06:12:49;;;;;;;9.23;6.17;;;;;;;12.76;74.32;99346.88;5115123;27;42112;-82
2022/05/01 06:15:17;;;;;;;6.77;6.10;;;;;;;12.71;74.20;99327.72;5133537;27;42503;-81
2022/05/01 06:17:44;;;;;;;6.13;5.50;;;;;;;12.89;74.10;99353.97;5116100;27;43718;-82
2022/05/01 06:20:13;;;;;;;7.20;6.50;;;;;;;12.94;73.90;99356.34;5114962;27;38924;-81
2022/05/01 06:22:42;;;;;;;6.70;5.43;;;;;;;12.96;73.78;99362.44;5117035;27;41478;-81
2022/05/01 06:25:10;;;;;;;9.13;7.43;;;;;;;12.89;73.79;99353.97;5134716;27;43775;-80
2022/05/01 06:27:38;;;;;;;7.40;6.00;;;;;;;12.98;73.60;99372.97;5133234;27;42161;-82
2022/05/01 06:30:07;;;;;;;7.60;6.07;;;;;;;12.95;73.42;99355.41;5115804;27;40475;-82
2022/05/01 06:32:35;;;;;;;7.47;6.33;;;;;;;13.08;73.83;99374.06;5129508;27;42738;-81
2022/05/01 06:35:04;;;;;;;8.13;6.63;;;;;;;13.14;73.77;99378.97;5128791;27;41766;-82
2022/05/01 06:37:32;;;;;;;6.87;5.90;;;;;;;13.13;73.36;99362.16;5129553;27;42267;-78
2022/05/01 06:40:01;;;;;;;6.37;5.67;;;;;;;13.24;73.56;99378.31;5135204;27;39901;-81
2022/05/01 06:42:30;;;;;;;6.43;5.83;;;;;;;13.16;73.53;99346.06;5111375;27;42160;-79
2022/05/01 06:44:58;;;;;;;6.90;6.20;;;;;;;13.27;73.06;99356.84;5127424;27;42908;-79
2022/05/01 06:47:25;;;;;;;8.40;6.67;;;;;;;13.51;72.99;99382.78;5133209;27;42295;-78
2022/05/01 06:49:53;;;;;;;6.97;6.27;;;;;;;13.62;72.58;99374.94;5132144;27;39036;-81
2022/05/01 06:52:23;;;;;;;9.83;6.13;;;;;;;13.70;71.92;99372.63;5134071;27;41724;-83
2022/05/01 06:54:50;;;;;;;8.13;6.30;;;;;;;13.84;71.63;99363.72;5115522;27;41454;-81
2022/05/01 06:57:19;;;;;;;7.57;6.53;;;;;;;13.90;70.65;99361.47;5113536;27;41369;-82
2022/05/01 06:59:47;;;;;;;8.13;6.53;;;;;;;13.98;70.22;99359.13;5116066;27;39237;-79
2022/05/01 07:02:15;;;;;;;7.07;6.37;;;;;;;14.14;70.31;99374.94;5132826;27;40673;-78
2022/05/01 07:04:43;;;;;;;10.93;6.57;;;;;;;14.17;70.29;99365.88;5133576;27;42559;-81
2022/05/01 07:07:10;;;;;;;8.10;6.63;;;;;;;14.18;70.75;99360.44;5116748;27;41716;-81
2022/05/01 07:09:38;;;;;;;8.43;6.90;;;;;;;14.00;70.65;99319.09;5133901;27;39827;-79
2022/05/01 07:12:10;;;;;;;7.23;6.27;;;;;;;14.21;70.86;99346.06;5132747;27;40624;-81
2022/05/01 07:14:40;;;;;;;8.53;7.13;;;;;;;14.36;70.59;99363.63;5131727;27;42733;-80
2022/05/01 07:17:07;;;;;;;8.23;6.27;;;;;;;14.37;70.16;99366.19;5133551;27;44260;-79
2022/05/01 07:19:35;;;;;;;6.93;5.47;;;;;;;14.44;70.14;99361.34;5131798;27;39626;-79
2022/05/01 07:22:02;;;;;;;5.97;5.37;;;;;;;14.70;70.30;99370.16;5133538;27;42053;-78
2022/05/01 07:24:30;;;;;;;7.90;6.77;;;;;;;14.96;69.69;99370.97;5133291;27;41807;-81
2022/05/01 07:26:58;;;;;;;8.20;6.60;;;;;;;14.81;68.68;99321.38;5116110;27;43787;-81
2022/05/01 07:29:26;;;;;;;9.73;6.80;;;;;;;15.34;67.36;99382.31;5132985;27;41872;-80
2022/05/01 07:31:55;;;;;;;7.63;6.50;;;;;;;15.35;67.30;99360.00;5133005;27;41068;-80
2022/05/01 07:34:23;;;;;;;7.23;6.53;;;;;;;15.66;65.71;99387.16;5133294;27;42032;-82
2022/05/01 07:36:50;;;;;;;9.20;6.97;;;;;;;15.86;65.37;99386.47;5116267;27;41916;-81
2022/05/01 07:39:18;;;;;;;6.73;5.90;;;;;;;16.05;64.84;99378.78;5145515;27;39978;-79
2022/05/01 07:41:46;;;;;;;7.03;6.33;;;;;;;16.27;64.03;99382.47;5148927;27;41941;-81
2022/05/01 07:44:13;;;;;;;7.77;5.77;;;;;;;16.36;63.68;99365.72;5147510;27;42739;-81
2022/05/01 07:46:42;;;;;;;7.47;6.53;;;;;;;16.64;63.85;99381.31;5129600;27;40984;-81
2022/05/01 07:49:11;;;;;;;9.13;6.60;;;;;;;17.32;62.75;99380.25;5148568;27;40659;-80
2022/05/01 07:51:39;;;;;;;6.50;5.77;;;;;;;18.33;60.48;99388.72;5128583;27;41844;-79
2022/05/01 07:54:07;;;;;;;8.27;6.20;;;;;;;18.90;59.58;99400.78;5133055;27;43213;-80
2022/05/01 07:56:36;;;;;;;11.87;6.43;;;;;;;18.95;56.24;99420.00;5134226;27;42918;-81
2022/05/01 07:59:04;;;;;;;6.67;5.83;;;;;;;18.98;56.48;99407.19;5116090;27;38943;-81
2022/05/01 08:01:32;;;;;;;6.30;5.70;;;;;;;19.02;57.31;99405.09;5132559;27;40253;-81
2022/05/01 08:06:47;;;;;;;6.10;5.40;;;;;;;19.86;56.61;99400.16;5133123;27;42290;-79
2022/05/01 08:09:15;;;;;;;7.27;5.50;;;;;;;20.37;55.75;99399.88;5134163;27;39927;-79
2022/05/01 08:11:44;;;;;;;6.40;5.80;;;;;;;20.90;53.16;99420.81;5115476;27;40794;-79
2022/05/01 08:14:12;;;;;;;9.03;6.23;;;;;;;21.09;53.03;99418.06;5131885;27;42736;-79
2022/05/01 08:16:40;;;;;;;8.27;5.33;;;;;;;21.39;51.60;99422.31;5124784;27;42957;-82
2022/05/01 08:21:54;;;;;;;6.13;5.43;;;;;;;21.64;49.68;99418.88;5131135;27;41862;-82
2022/05/01 08:24:21;;;;;;;7.33;5.67;;;;;;;21.46;46.23;99455.75;5132439;27;42924;-83
2022/05/01 08:26:49;;;;;;;7.33;5.23;;;;;;;21.69;46.52;99445.41;5109982;27;41354;-83
2022/05/01 08:29:18;;;;;;;6.93;5.43;;;;;;;22.23;47.09;99439.06;5131262;27;39291;-82
2022/05/01 08:31:46;;;;;;;7.07;5.87;;;;;;;22.17;46.84;99447.75;5131815;27;41844;-87
2022/05/01 08:34:14;;;;;;;6.07;4.77;;;;;;;21.63;47.47;99389.41;5114442;27;41639;-81
2022/05/01 08:36:42;;;;;;;6.57;5.67;;;;;;;21.94;45.64;99447.34;5132237;27;43322;-82
2022/05/01 08:39:11;;;;;;;5.73;5.20;;;;;;;21.88;46.42;99441.75;5123389;27;40644;-80
2022/05/01 08:41:38;;;;;;;6.03;5.30;;;;;;;21.95;47.13;99437.41;5113735;27;40950;-82
2022/05/01 08:44:10;;;;;;;6.63;5.37;;;;;;;21.89;46.81;99430.75;5134053;27;42984;-83
2022/05/01 08:47:03;;;;;;;5.43;4.93;;;;;;;21.53;46.57;99421.81;5114700;27;42050;-83
2022/05/01 08:49:34;;;;;;;5.77;5.17;;;;;;;21.26;46.35;99436.16;5132109;27;39452;-82
2022/05/01 08:52:02;;;;;;;7.50;5.93;;;;;;;21.04;47.05;99426.56;5132882;27;42197;-85
2022/05/01 08:54:33;;;;;;;6.10;5.47;;;;;;;20.99;47.76;99418.09;5114808;27;41590;-86
2022/05/01 08:57:01;;;;;;;6.37;5.77;;;;;;;21.53;46.63;99429.88;5132055;27;42226;-85
2022/05/01 08:59:30;;;;;;;6.20;5.63;;;;;;;22.21;45.10;99432.97;5114832;27;38824;-86
2022/05/01 09:01:58;;;;;;;5.80;5.20;;;;;;;22.43;45.27;99389.28;5114640;27;42913;-85
2022/05/01 09:04:28;;;;;;;7.37;5.83;;;;;;;22.54;43.46;99440.31;5115057;27;41670;-86
2022/05/01 09:06:56;;;;;;;8.27;5.97;;;;;;;22.26;43.15;99438.72;5114889;27;42752;-87
2022/05/01 09:09:24;;;;;;;8.30;6.50;;;;;;;22.14;44.98;99442.66;5115078;27;41073;-82
2022/05/01 09:14:42;;;;;;;9.47;6.27;;;;;;;22.04;45.10;99425.72;5114551;27;43183;-82
2022/05/01 09:17:15;;;;;;;9.07;6.90;;;;;;;21.96;44.07;99433.72;5131474;27;43029;-88
2022/05/01 09:19:44;;;;;;;6.63;5.97;;;;;;;21.92;44.11;99435.00;5129506;27;40874;-82
2022/05/01 09:22:12;;;;;;;7.73;6.57;;;;;;;22.02;43.88;99438.50;5130639;27;41672;-85
2022/05/01 09:24:40;;;;;;;7.33;6.73;;;;;;;22.01;43.88;99415.22;5101747;27;42028;-83
2022/05/01 09:27:25;;;;;;;8.10;6.57;;;;;;;22.16;44.44;99437.97;5130998;27;42242;-82
2022/05/01 09:30:08;;;;;;;6.63;5.93;;;;;;;22.10;44.83;99435.91;5113822;27;40005;-82
2022/05/01 09:32:38;;;;;;;7.67;6.30;;;;;;;21.98;45.40;99427.16;5114092;27;40744;-83
2022/05/01 09:35:07;;;;;;;7.50;6.70;;;;;;;21.79;45.46;99428.16;5114825;27;42108;-80
2022/05/01 09:37:35;;;;;;;6.47;5.60;;;;;;;21.71;46.27;99424.53;5132481;27;41026;-81
2022/05/01 09:40:02;;;;;;;7.73;6.77;;;;;;;21.57;45.15;99420.50;5116015;27;40517;-83
2022/05/01 09:42:35;;;;;;;11.03;6.60;;;;;;;21.47;44.33;99433.19;5130189;27;40992;-81
2022/05/01 09:45:08;;;;;;;7.30;6.33;;;;;;;21.40;45.71;99415.91;5114336;28;45390;-82
2022/05/01 09:47:37;;;;;;;7.87;6.33;;;;;;;21.62;46.40;99420.06;5113951;28;42923;-83
2022/05/01 09:50:06;;;;;;;6.93;6.23;;;;;;;21.75;45.07;99428.63;5114862;27;38528;-82
2022/05/01 09:53:00;;;;;;;9.53;7.60;;;;;;;21.92;45.24;99432.31;5134435;27;42748;-81
2022/05/01 09:55:29;;;;;;;8.20;6.77;;;;;;;21.92;45.65;99411.59;5132356;27;42815;-80
2022/05/01 09:58:08;;;;;;;7.83;7.03;;;;;;;21.97;45.21;99419.22;5134317;27;41203;-83
2022/05/01 10:00:41;;;;;;;7.47;6.73;;;;;;;21.92;45.16;99410.75;5122136;27;41509;-80
2022/05/01 10:03:23;;;;;;;9.60;7.50;;;;;;;22.00;46.37;99414.41;5117166;27;41746;-84
2022/05/01 10:05:52;;;;;;;8.33;7.20;;;;;;;21.98;46.24;99412.84;5117833;27;43189;-81
2022/05/01 10:08:21;;;;;;;7.63;6.90;;;;;;;21.94;44.85;99427.63;5133975;27;43006;-83
2022/05/01 10:10:51;;;;;;;7.83;7.13;;;;;;;21.87;45.02;99427.41;5134472;27;40704;-78
2022/05/01 10:13:20;;;;;;;8.23;6.97;;;;;;;21.86;45.56;99428.41;5129532;27;42764;-82
2022/05/01 10:15:49;;;;;;;7.37;6.40;;;;;;;21.83;45.37;99407.97;5114113;28;42827;-83
2022/05/01 10:18:17;;;;;;;12.17;8.77;;;;;;;21.86;44.76;99423.84;5115697;27;42327;-81
2022/05/01 10:20:45;;;;;;;9.37;8.47;;;;;;;21.85;43.40;99432.09;5117411;27;41437;-79
2022/05/01 10:23:13;;;;;;;7.73;7.03;;;;;;;21.77;43.94;99413.13;5132965;27;41758;-81
2022/05/01 10:25:48;;;;;;;7.40;6.33;;;;;;;21.86;44.36;99418.47;5117702;27;44720;-87
2022/05/01 10:28:46;;;;;;;6.60;6.10;;;;;;;22.08;44.63;99410.94;5116976;27;41575;-85
2022/05/01 10:34:29;;;;;;;9.67;8.60;;;;;;;22.71;43.50;99422.38;5118031;27;41075;-82
2022/05/01 10:37:19;;;;;;;7.83;7.00;;;;;;;22.92;42.97;99425.56;5116304;27;41774;-85
2022/05/01 10:39:50;;;;;;;9.87;7.27;;;;;;;23.01;42.18;99407.53;5131261;27;43207;-83
2022/05/01 10:42:33;;;;;;;8.07;7.27;;;;;;;23.28;40.97;99436.19;5141507;27;38624;-84
2022/05/01 10:45:02;;;;;;;8.93;7.33;;;;;;;23.48;40.99;99424.13;5110597;28;41552;-85
2022/05/01 10:47:38;;;;;;;7.97;7.17;;;;;;;24.04;41.01;99429.84;5113152;28;44420;-82
2022/05/01 10:50:07;;;;;;;9.73;7.77;;;;;;;24.29;39.99;99440.53;5129043;27;42299;-84
2022/05/01 10:52:35;;;;;;;8.20;7.40;;;;;;;24.58;39.89;99433.78;5143146;27;42124;-86
2022/05/01 10:55:05;;;;;;;8.90;7.87;;;;;;;25.35;38.47;99424.91;5130888;27;42172;-82
2022/05/01 10:57:33;;;;;;;7.83;6.63;;;;;;;26.55;37.51;99441.66;5133313;27;41924;-79
2022/05/01 11:00:20;;;;;;;7.60;6.90;;;;;;;27.52;35.85;99446.88;5131861;27;42470;-85
2022/05/01 11:02:49;;;;;;;8.47;7.47;;;;;;;28.12;35.65;99448.44;5132498;27;38627;-81
2022/05/01 11:05:43;;;;;;;8.20;7.17;;;;;;;28.33;33.18;99465.84;5115008;27;42203;-81
2022/05/01 11:08:21;;;;;;;7.83;6.30;;;;;;;27.67;35.50;99427.84;5112143;27;41988;-85
2022/05/01 11:10:49;;;;;;;7.37;6.23;;;;;;;27.11;35.10;99429.38;5109657;28;43243;-82
2022/05/01 11:13:18;;;;;;;8.00;7.20;;;;;;;27.62;34.16;99446.59;5098465;27;38943;-89
2022/05/01 11:15:49;;;;;;;11.93;7.93;;;;;;;28.53;31.81;99429.56;5130666;27;41535;-79
2022/05/01 11:18:25;;;;;;;8.00;7.30;;;;;;;28.91;32.08;99460.09;5131434;27;42648;-83
2022/05/01 11:20:53;;;;;;;7.87;7.10;;;;;;;28.74;31.82;99453.22;5131021;27;42366;-86
2022/05/01 11:23:35;;;;;;;8.50;7.70;;;;;;;28.33;32.90;99450.34;5136436;27;40660;-83
2022/05/01 11:26:13;;;;;;;8.40;7.40;;;;;;;27.41;33.33;99450.09;5112040;27;40953;-83
2022/05/01 11:28:52;;;;;;;10.03;7.60;;;;;;;26.74;34.61;99431.09;5115083;27;43179;-85
2022/05/01 11:31:44;;;;;;;7.40;6.70;;;;;;;26.55;35.25;99430.78;5131603;27;42210;-85
2022/05/01 11:34:34;;;;;;;7.23;6.53;;;;;;;26.36;35.99;99424.84;5131867;27;39940;-89
2022/05/01 11:37:05;;;;;;;7.50;6.80;;;;;;;26.13;36.80;99416.69;5115657;27;40592;-88
2022/05/01 11:40:11;;;;;;;8.27;6.97;;;;;;;26.07;35.76;99420.13;5129140;27;42817;-82
2022/05/01 11:42:40;;;;;;;7.60;6.90;;;;;;;26.68;36.01;99401.97;5131324;27;42299;-81
2022/05/01 11:45:10;;;;;;;6.87;6.33;;;;;;;27.07;35.52;99412.59;5132087;27;40761;-82
2022/05/01 11:47:42;;;;;;;9.57;7.90;;;;;;;26.78;35.32;99409.84;5094118;28;40509;-83
2022/05/01 11:50:22;;;;;;;8.43;7.63;;;;;;;26.50;35.41;99417.75;5111443;28;41918;-81
2022/05/01 11:52:51;;;;;;;7.37;6.63;;;;;;;26.89;36.19;99393.06;5129041;27;42227;-83
2022/05/01 11:55:20;;;;;;;7.73;7.03;;;;;;;29.10;32.52;99424.94;5130394;27;39045;-80
2022/05/01 12:03:37;;;;;;;7.30;6.60;;;;;;;30.15;30.43;99430.03;5062159;27;42348;-83
2022/05/01 12:06:05;;;;;;;8.57;7.77;;;;;;;29.01;30.45;99404.34;5130071;27;38612;-88
2022/05/01 12:08:32;;;;;;;8.37;7.67;;;;;;;28.17;30.80;99417.91;5114121;27;42240;-83
2022/05/01 12:11:00;;;;;;;7.77;7.07;;;;;;;28.46;31.79;99427.81;5114290;27;42160;-78
2022/05/01 12:13:30;;;;;;;9.77;8.00;;;;;;;27.75;32.04;99396.94;5114772;27;41413;-81
2022/05/01 12:15:57;;;;;;;10.33;9.33;;;;;;;28.26;32.45;99415.91;5131118;27;39019;-88
2022/05/01 12:18:25;;;;;;;7.83;7.13;;;;;;;28.89;31.56;99410.38;5110919;27;42661;-85